Time;durP1;ratioP1;P1;durP2;ratioP2;P2;SDS_P1;SDS_P2;PMS_P1;PMS_P2;Temp;Humidity;BMP_temperature;BMP_pressure;BME280_temperature;BME280_humidity;BME280_pressure;Samples;Min_cycle;Max_cycle;Signal;HPM_P1;HPM_P2
2022/10/05 00:01:20;;;;;;;5.55;3.00;;;;;;;;;;4975075;28;19913;-78
2022/10/05 00:03:46;;;;;;;3.40;2.90;;;;;;;;;;4987443;28;20042;-78
2022/10/05 00:06:12;;;;;;;3.80;2.97;;;;;;;;;;4982046;28;20426;-78
2022/10/05 00:08:37;;;;;;;3.47;2.67;;;;;;;;;;4965058;28;20042;-78
2022/10/05 00:11:02;;;;;;;;;;;;;;;;;;4944141;28;20038;-78
2022/10/05 00:13:28;;;;;;;3.67;3.20;;;;;;;;;;4978331;28;20378;-79
2022/10/05 00:15:58;;;;;;;4.15;2.92;;;;;;;;;;4975004;28;20042;-79
2022/10/05 00:18:25;;;;;;;4.10;3.33;;;;;;;;;;4970148;28;20133;-78
2022/10/05 00:20:50;;;;;;;;;;;;;;;;;;4959178;28;20068;-77
2022/10/05 00:23:20;;;;;;;3.20;2.85;;;;;;;;;;4961454;28;19918;-77
2022/10/05 00:25:45;;;;;;;3.58;2.88;;;;;;;;;;4970142;28;20553;-77
2022/10/05 00:28:14;;;;;;;3.35;3.05;;;;;;;;;;4975956;28;20066;-79
2022/10/05 00:30:40;;;;;;;4.68;3.30;;;;;;;;;;4968473;28;20041;-80
2022/10/05 00:33:05;;;;;;;3.88;3.45;;;;;;;;;;4975275;28;20121;-78
2022/10/05 00:35:31;;;;;;;4.18;3.40;;;;;;;;;;4974946;28;20050;-77
2022/10/05 00:37:56;;;;;;;4.53;3.30;;;;;;;;;;4970202;28;20529;-77
2022/10/05 00:40:40;;;;;;;4.22;3.42;;;;;;;;;;4968361;28;20027;-78
2022/10/05 00:43:12;;;;;;;6.18;3.30;;;;;;;;;;4981341;28;20088;-78
2022/10/05 00:45:45;;;;;;;4.72;3.50;;;;;;;;;;4975256;28;20525;-78
2022/10/05 00:48:10;;;;;;;3.72;2.92;;;;;;;;;;4966791;28;20045;-78
2022/10/05 00:51:02;;;;;;;3.47;2.83;;;;;;;;;;4987037;28;20030;-79
2022/10/05 00:53:46;;;;;;;4.05;2.90;;;;;;;;;;4953790;28;20070;-78
2022/10/05 00:56:16;;;;;;;3.22;2.92;;;;;;;;;;4952828;29;20041;-80
2022/10/05 00:58:42;;;;;;;5.47;2.85;;;;;;;;;;4971776;28;20031;-78
2022/10/05 01:01:28;;;;;;;6.90;3.70;;;;;;;;;;4970244;28;20453;-78
2022/10/05 01:03:54;;;;;;;3.63;3.20;;;;;;;;;;4957710;28;20074;-79
2022/10/05 01:06:21;;;;;;;;;;;;;;;;;;4974504;28;20055;-78
2022/10/05 01:08:49;;;;;;;4.35;3.08;;;;;;;;;;4972909;28;19914;-79
2022/10/05 01:11:19;;;;;;;3.42;2.70;;;;;;;;;;4954567;29;20031;-79
2022/10/05 01:13:51;;;;;;;4.38;2.47;;;;;;;;;;4970720;28;20071;-78
2022/10/05 01:16:20;;;;;;;3.55;2.42;;;;;;;;;;4953332;28;20119;-77
2022/10/05 01:18:49;;;;;;;3.08;2.70;;;;;;;;;;4966799;28;20055;-78
2022/10/05 01:21:24;;;;;;;3.40;2.50;;;;;;;;;;4961899;28;20061;-77
2022/10/05 01:23:57;;;;;;;2.67;2.17;;;;;;;;;;4957077;28;20035;-79
2022/10/05 01:26:41;;;;;;;3.90;2.53;;;;;;;;;;4963765;28;20042;-78
2022/10/05 01:29:06;;;;;;;3.53;2.40;;;;;;;;;;4988096;28;20031;-78
2022/10/05 01:31:34;;;;;;;5.10;2.10;;;;;;;;;;4977945;28;20030;-78
2022/10/05 01:34:05;;;;;;;5.75;2.55;;;;;;;;;;4972031;28;20102;-79
2022/10/05 01:36:33;;;;;;;2.92;2.08;;;;;;;;;;4976662;28;20083;-78
2022/10/05 01:38:58;;;;;;;2.90;2.00;;;;;;;;;;4936080;28;20019;-78
2022/10/05 01:41:36;;;;;;;3.13;2.25;;;;;;;;;;4971847;28;20049;-77
2022/10/05 01:44:12;;;;;;;4.15;2.22;;;;;;;;;;4972289;28;20039;-78
2022/10/05 01:46:39;;;;;;;2.45;1.90;;;;;;;;;;4947545;28;20043;-78
2022/10/05 01:49:05;;;;;;;3.95;2.30;;;;;;;;;;4954253;28;20431;-78
2022/10/05 01:51:40;;;;;;;4.05;2.35;;;;;;;;;;4985976;28;20049;-79
2022/10/05 01:54:09;;;;;;;2.77;2.30;;;;;;;;;;4971004;28;20050;-78
2022/10/05 01:56:38;;;;;;;2.67;2.40;;;;;;;;;;4974171;28;20170;-78
2022/10/05 01:59:23;;;;;;;3.33;2.45;;;;;;;;;;4982550;28;20407;-78
2022/10/05 02:01:53;;;;;;;5.05;2.40;;;;;;;;;;4970756;28;20058;-78
2022/10/05 02:04:45;;;;;;;3.72;2.17;;;;;;;;;;4986067;28;20035;-78
2022/10/05 02:07:13;;;;;;;2.88;2.15;;;;;;;;;;4977066;28;20047;-78
2022/10/05 02:09:42;;;;;;;2.90;2.15;;;;;;;;;;4947551;28;20034;-78
2022/10/05 02:12:13;;;;;;;3.25;2.30;;;;;;;;;;4965556;28;20062;-78
2022/10/05 02:14:43;;;;;;;3.08;2.20;;;;;;;;;;4966499;28;20122;-78
2022/10/05 02:17:22;;;;;;;2.85;2.20;;;;;;;;;;4983621;28;20113;-78
2022/10/05 02:19:49;;;;;;;2.53;1.90;;;;;;;;;;4964699;28;20039;-77
2022/10/05 02:22:35;;;;;;;2.38;2.17;;;;;;;;;;4940832;28;20027;-77
2022/10/05 02:25:02;;;;;;;3.97;2.00;;;;;;;;;;4969538;28;20038;-77
2022/10/05 02:27:39;;;;;;;2.50;2.10;;;;;;;;;;4948893;28;20027;-78
2022/10/05 02:30:05;;;;;;;3.45;2.28;;;;;;;;;;4969401;28;20031;-77
2022/10/05 02:32:48;;;;;;;2.78;2.15;;;;;;;;;;4984492;28;20031;-78
2022/10/05 02:35:15;;;;;;;2.60;2.00;;;;;;;;;;4956670;28;20059;-77
2022/10/05 02:37:45;;;;;;;2.20;2.00;;;;;;;;;;4969913;28;20392;-78
2022/10/05 02:40:20;;;;;;;3.22;1.98;;;;;;;;;;4956395;28;20031;-78
2022/10/05 02:42:52;;;;;;;4.75;2.30;;;;;;;;;;4961130;28;20038;-78
2022/10/05 02:45:22;;;;;;;3.20;2.20;;;;;;;;;;4945203;28;20035;-78
2022/10/05 02:47:54;;;;;;;2.80;2.42;;;;;;;;;;4969340;28;20031;-78
2022/10/05 02:50:32;;;;;;;2.65;2.25;;;;;;;;;;4969445;28;20495;-78
2022/10/05 02:53:06;;;;;;;3.05;2.10;;;;;;;;;;4956727;28;20045;-78
2022/10/05 02:55:43;;;;;;;2.87;2.30;;;;;;;;;;4976838;28;20080;-78
2022/10/05 02:58:10;;;;;;;3.60;2.30;;;;;;;;;;4971056;28;20278;-77
2022/10/05 03:00:55;;;;;;;2.45;2.00;;;;;;;;;;4957055;28;20029;-77
2022/10/05 03:03:21;;;;;;;3.13;2.20;;;;;;;;;;4955258;28;20032;-78
2022/10/05 03:05:52;;;;;;;2.67;1.92;;;;;;;;;;4956753;28;20035;-78
2022/10/05 03:08:19;;;;;;;2.63;2.10;;;;;;;;;;4950583;28;20043;-78
2022/10/05 03:11:03;;;;;;;3.63;2.10;;;;;;;;;;4961941;28;20542;-77
2022/10/05 03:13:49;;;;;;;4.72;2.10;;;;;;;;;;4978812;28;20031;-78
2022/10/05 03:16:31;;;;;;;3.15;2.15;;;;;;;;;;4985645;28;20407;-78
2022/10/05 03:19:15;;;;;;;2.97;2.25;;;;;;;;;;4976451;28;20039;-77
2022/10/05 03:21:41;;;;;;;3.58;2.05;;;;;;;;;;4980454;28;20495;-79
2022/10/05 03:24:26;;;;;;;3.20;2.00;;;;;;;;;;4974348;28;20038;-79
2022/10/05 03:26:59;;;;;;;3.00;2.47;;;;;;;;;;4973120;28;20121;-79
2022/10/05 03:29:31;;;;;;;3.00;2.13;;;;;;;;;;4972181;28;20045;-78
2022/10/05 03:31:59;;;;;;;3.25;2.55;;;;;;;;;;4989295;28;20035;-78
2022/10/05 03:34:28;;;;;;;3.78;3.10;;;;;;;;;;4939997;29;20479;-78
2022/10/05 03:36:54;;;;;;;4.78;2.70;;;;;;;;;;4958216;28;20507;-79
2022/10/05 03:39:28;;;;;;;4.47;2.90;;;;;;;;;;4974244;28;20042;-79
2022/10/05 03:41:57;;;;;;;4.43;2.80;;;;;;;;;;4959343;28;20130;-79
2022/10/05 03:44:32;;;;;;;3.95;2.90;;;;;;;;;;4956163;29;20122;-79
2022/10/05 03:47:06;;;;;;;3.83;2.80;;;;;;;;;;4956936;28;20070;-78
2022/10/05 03:49:41;;;;;;;5.13;2.90;;;;;;;;;;4988598;28;20075;-79
2022/10/05 03:52:24;;;;;;;3.88;2.80;;;;;;;;;;4972417;28;20042;-79
2022/10/05 03:54:51;;;;;;;3.30;2.70;;;;;;;;;;4989037;28;20043;-78
2022/10/05 03:57:18;;;;;;;4.15;3.03;;;;;;;;;;4956648;28;20050;-79
2022/10/05 03:59:48;;;;;;;5.22;3.10;;;;;;;;;;4958077;28;20051;-79
2022/10/05 04:02:40;;;;;;;3.20;2.88;;;;;;;;;;4956512;28;20427;-78
2022/10/05 04:05:09;;;;;;;5.30;3.10;;;;;;;;;;4970015;28;20035;-78
2022/10/05 04:07:36;;;;;;;3.50;3.00;;;;;;;;;;4968797;28;20379;-78
2022/10/05 04:10:04;;;;;;;5.43;3.10;;;;;;;;;;4971759;28;20031;-79
2022/10/05 04:12:37;;;;;;;5.45;3.20;;;;;;;;;;4970778;28;20078;-79
2022/10/05 04:15:06;;;;;;;5.78;3.15;;;;;;;;;;4958987;28;20509;-79
2022/10/05 04:17:36;;;;;;;3.90;2.88;;;;;;;;;;4940017;29;20028;-79
2022/10/05 04:20:21;;;;;;;5.53;3.40;;;;;;;;;;4961930;28;20022;-79
2022/10/05 04:22:51;;;;;;;3.65;2.97;;;;;;;;;;4987589;28;20529;-79
2022/10/05 04:25:19;;;;;;;4.05;2.75;;;;;;;;;;4980170;28;20031;-79
2022/10/05 04:27:53;;;;;;;3.30;2.80;;;;;;;;;;4970151;28;20027;-78
2022/10/05 04:30:21;;;;;;;3.85;2.60;;;;;;;;;;4956619;28;20039;-79
2022/10/05 04:32:51;;;;;;;4.53;3.00;;;;;;;;;;4975115;28;20075;-78
2022/10/05 04:35:38;;;;;;;3.25;2.30;;;;;;;;;;4997365;28;20066;-78
2022/10/05 04:38:10;;;;;;;3.85;2.53;;;;;;;;;;4972193;28;20102;-79
2022/10/05 04:40:54;;;;;;;3.78;2.80;;;;;;;;;;4971077;28;20122;-79
2022/10/05 04:43:26;;;;;;;3.42;2.55;;;;;;;;;;4974631;28;20042;-79
2022/10/05 04:46:06;;;;;;;4.10;2.85;;;;;;;;;;4968044;28;20045;-80
2022/10/05 04:48:37;;;;;;;4.28;2.55;;;;;;;;;;4972348;28;20125;-79
2022/10/05 04:51:15;;;;;;;4.05;2.72;;;;;;;;;;4958856;28;20070;-78
2022/10/05 04:53:53;;;;;;;3.85;2.20;;;;;;;;;;4972045;28;20039;-78
2022/10/05 04:56:39;;;;;;;5.88;2.40;;;;;;;;;;4963535;28;20038;-79
2022/10/05 04:59:24;;;;;;;3.00;2.20;;;;;;;;;;4972500;28;20045;-79
2022/10/05 05:02:05;;;;;;;3.55;2.17;;;;;;;;;;4975382;28;20036;-79
2022/10/05 05:04:42;;;;;;;3.35;2.10;;;;;;;;;;4951389;29;20042;-78
2022/10/05 05:07:07;;;;;;;2.50;2.00;;;;;;;;;;4938464;29;20031;-77
2022/10/05 05:09:52;;;;;;;3.45;1.98;;;;;;;;;;4973795;28;20488;-80
2022/10/05 05:12:29;;;;;;;3.47;2.20;;;;;;;;;;4953514;28;20047;-79
2022/10/05 05:15:06;;;;;;;4.22;2.55;;;;;;;;;;4970018;28;20050;-80
2022/10/05 05:17:51;;;;;;;4.00;2.08;;;;;;;;;;4941652;29;20394;-78
2022/10/05 05:20:32;;;;;;;3.53;2.03;;;;;;;;;;4986972;28;20039;-79
2022/10/05 05:22:57;;;;;;;2.90;2.00;;;;;;;;;;4988720;28;20127;-79
2022/10/05 05:25:38;;;;;;;3.08;1.90;;;;;;;;;;4974146;28;20569;-78
2022/10/05 05:28:15;;;;;;;2.70;1.98;;;;;;;;;;4947958;28;20490;-80
2022/10/05 05:30:50;;;;;;;3.03;2.00;;;;;;;;;;4948456;28;20490;-78
2022/10/05 05:33:18;;;;;;;3.13;1.98;;;;;;;;;;4970991;28;20126;-77
2022/10/05 05:36:04;;;;;;;3.25;2.00;;;;;;;;;;4983684;28;20034;-78
2022/10/05 05:38:30;;;;;;;4.03;2.40;;;;;;;;;;4978965;28;20402;-79
2022/10/05 05:41:01;;;;;;;3.33;1.98;;;;;;;;;;4949633;28;20030;-79
2022/10/05 05:43:30;;;;;;;2.97;1.95;;;;;;;;;;4965213;28;20038;-78
2022/10/05 05:46:07;;;;;;;3.80;1.80;;;;;;;;;;4957400;28;20081;-79
2022/10/05 05:48:36;;;;;;;4.05;1.90;;;;;;;;;;4962210;28;20047;-78
2022/10/05 05:51:04;;;;;;;2.60;1.80;;;;;;;;;;4963425;28;20039;-77
2022/10/05 05:53:31;;;;;;;2.13;1.55;;;;;;;;;;4981541;28;20054;-79
2022/10/05 05:56:00;;;;;;;1.63;1.27;;;;;;;;;;4961842;28;20034;-78
2022/10/05 05:58:39;;;;;;;2.85;1.50;;;;;;;;;;4948734;28;20057;-79
2022/10/05 06:01:25;;;;;;;3.53;1.63;;;;;;;;;;4990460;28;20058;-80
2022/10/05 06:03:53;;;;;;;2.22;1.45;;;;;;;;;;4938872;28;20046;-79
2022/10/05 06:06:20;;;;;;;3.17;1.50;;;;;;;;;;4958528;28;20506;-79
2022/10/05 06:08:49;;;;;;;2.10;1.52;;;;;;;;;;4954079;28;20045;-79
2022/10/05 06:11:54;;;;;;;1.80;1.35;;;;;;;;;;4965316;28;20035;-79
2022/10/05 06:14:31;;;;;;;1.70;1.30;;;;;;;;;;4974792;28;20034;-79
2022/10/05 06:16:59;;;;;;;2.38;1.10;;;;;;;;;;4974566;28;20089;-79
2022/10/05 06:19:25;;;;;;;2.30;1.38;;;;;;;;;;4962484;28;20502;-79
2022/10/05 06:22:10;;;;;;;2.63;1.20;;;;;;;;;;4959668;28;20037;-80
2022/10/05 06:24:37;;;;;;;2.65;1.05;;;;;;;;;;4987927;28;20046;-78
2022/10/05 06:27:03;;;;;;;2.20;1.00;;;;;;;;;;4988136;28;20262;-78
2022/10/05 06:29:42;;;;;;;2.40;0.77;;;;;;;;;;4974820;28;20031;-80
2022/10/05 06:32:25;;;;;;;1.70;0.90;;;;;;;;;;4973959;28;20046;-79
2022/10/05 06:35:10;;;;;;;1.90;0.63;;;;;;;;;;4986353;28;20153;-80
2022/10/05 06:37:43;;;;;;;1.63;0.88;;;;;;;;;;4986664;28;20094;-78
2022/10/05 06:40:09;;;;;;;1.27;0.70;;;;;;;;;;4958745;28;20062;-78
2022/10/05 06:42:45;;;;;;;2.72;0.60;;;;;;;;;;4977105;28;20085;-80
2022/10/05 06:45:19;;;;;;;3.00;0.98;;;;;;;;;;4987707;28;20490;-81
2022/10/05 06:48:08;;;;;;;2.25;0.90;;;;;;;;;;4953202;28;20047;-79
2022/10/05 06:50:54;;;;;;;3.15;0.80;;;;;;;;;;4989627;28;20419;-78
2022/10/05 06:53:29;;;;;;;2.50;0.88;;;;;;;;;;4966227;28;20384;-78
2022/10/05 06:55:57;;;;;;;1.23;0.70;;;;;;;;;;4977129;28;20037;-79
2022/10/05 06:58:41;;;;;;;1.05;0.77;;;;;;;;;;4990320;28;20042;-79
2022/10/05 07:01:22;;;;;;;2.58;0.90;;;;;;;;;;4970885;28;20537;-79
2022/10/05 07:03:47;;;;;;;3.13;1.10;;;;;;;;;;4977336;28;20034;-79
2022/10/05 07:06:14;;;;;;;1.73;1.10;;;;;;;;;;4977970;28;20471;-80
2022/10/05 07:08:53;;;;;;;1.30;0.90;;;;;;;;;;4993580;28;20038;-79
2022/10/05 07:11:20;;;;;;;1.58;0.90;;;;;;;;;;4991936;28;20043;-79
2022/10/05 07:13:46;;;;;;;;;;;;;;;;;;4977892;28;20030;-79
2022/10/05 07:16:30;;;;;;;3.15;1.30;;;;;;;;;;4989323;28;19917;-79
2022/10/05 07:19:08;;;;;;;4.00;1.10;;;;;;;;;;4977397;28;20502;-80
2022/10/05 07:21:47;;;;;;;2.65;1.20;;;;;;;;;;4978628;28;20042;-78
2022/10/05 07:24:13;;;;;;;2.97;1.20;;;;;;;;;;4991785;28;20046;-79
2022/10/05 07:26:44;;;;;;;3.45;0.90;;;;;;;;;;4992188;28;20387;-78
2022/10/05 07:29:23;;;;;;;1.17;0.80;;;;;;;;;;4978047;28;20038;-79
2022/10/05 07:31:49;;;;;;;1.50;0.95;;;;;;;;;;4975190;28;20041;-79
2022/10/05 07:34:18;;;;;;;1.23;0.70;;;;;;;;;;4976463;28;20055;-79
2022/10/05 07:40:07;;;;;;;1.23;0.70;;;;;;;;;;4969986;28;20042;-82
2022/10/05 07:42:39;;;;;;;1.63;0.98;;;;;;;;;;4979516;28;20133;-80
2022/10/05 07:45:24;;;;;;;2.75;1.00;;;;;;;;;;4991119;28;20039;-81
2022/10/05 07:47:58;;;;;;;1.98;0.93;;;;;;;;;;4964725;28;20066;-80
2022/10/05 07:50:53;;;;;;;2.90;1.10;;;;;;;;;;4962311;28;20030;-78
2022/10/05 07:53:54;;;;;;;3.65;0.95;;;;;;;;;;4960654;28;20043;-79
2022/10/05 07:56:32;;;;;;;1.92;1.00;;;;;;;;;;4937259;29;20428;-80
2022/10/05 07:59:06;;;;;;;2.33;1.00;;;;;;;;;;4966607;28;20046;-79
2022/10/05 08:01:33;;;;;;;3.58;1.00;;;;;;;;;;4975046;28;20061;-79
2022/10/05 08:04:07;;;;;;;2.30;1.02;;;;;;;;;;4967670;28;20441;-80
2022/10/05 08:06:36;;;;;;;1.38;0.90;;;;;;;;;;4975207;28;20038;-79
2022/10/05 08:09:39;;;;;;;3.00;1.20;;;;;;;;;;4994085;28;20441;-79
2022/10/05 08:12:23;;;;;;;2.22;1.02;;;;;;;;;;4907155;29;20036;-79
2022/10/05 08:15:00;;;;;;;1.05;0.70;;;;;;;;;;4973729;28;20070;-79
2022/10/05 08:17:40;;;;;;;1.15;0.60;;;;;;;;;;4988058;28;20081;-80
2022/10/05 08:20:17;;;;;;;1.27;0.60;;;;;;;;;;4974375;28;20402;-80
2022/10/05 08:22:45;;;;;;;2.03;0.82;;;;;;;;;;4989432;28;20175;-81
2022/10/05 08:25:18;;;;;;;0.75;0.70;;;;;;;;;;4969098;28;20034;-79
2022/10/05 08:27:48;;;;;;;1.02;0.60;;;;;;;;;;4973947;28;20049;-79
2022/10/05 08:30:14;;;;;;;2.97;0.90;;;;;;;;;;4994776;28;20034;-82
2022/10/05 08:32:40;;;;;;;;;;;;;;;;;;4950997;28;20088;-80
2022/10/05 08:35:23;;;;;;;1.15;0.80;;;;;;;;;;4985528;28;20357;-80
2022/10/05 08:37:48;;;;;;;0.85;0.70;;;;;;;;;;4969439;28;20049;-80
2022/10/05 08:40:13;;;;;;;;;;;;;;;;;;4977343;28;20034;-79
2022/10/05 08:42:50;;;;;;;1.70;0.60;;;;;;;;;;4980890;28;19914;-79
2022/10/05 08:45:31;;;;;;;1.35;0.80;;;;;;;;;;4966318;28;20671;-80
2022/10/05 08:47:56;;;;;;;1.85;0.70;;;;;;;;;;4988144;28;20090;-80
2022/10/05 08:50:22;;;;;;;;;;;;;;;;;;4984048;28;20447;-79
2022/10/05 08:52:47;;;;;;;1.27;0.60;;;;;;;;;;4984612;28;19914;-79
2022/10/05 08:55:13;;;;;;;2.17;0.80;;;;;;;;;;4981774;28;20065;-78
2022/10/05 08:57:42;;;;;;;2.95;0.90;;;;;;;;;;4990703;28;20031;-79
2022/10/05 09:00:20;;;;;;;2.50;1.15;;;;;;;;;;4968480;28;20018;-79
2022/10/05 09:02:50;;;;;;;2.72;0.80;;;;;;;;;;4976764;28;20034;-78
2022/10/05 09:05:23;;;;;;;1.42;0.90;;;;;;;;;;4992203;28;20398;-80
2022/10/05 09:08:07;;;;;;;2.38;1.13;;;;;;;;;;4994233;28;20125;-79
2022/10/05 09:10:42;;;;;;;1.50;0.80;;;;;;;;;;4951637;28;20046;-79
2022/10/05 09:13:17;;;;;;;2.28;1.00;;;;;;;;;;4976906;28;20051;-80
2022/10/05 09:15:47;;;;;;;0.90;0.65;;;;;;;;;;4985810;28;20113;-81
2022/10/05 09:18:36;;;;;;;4.53;1.10;;;;;;;;;;4981559;28;20545;-79
2022/10/05 09:21:07;;;;;;;3.33;1.30;;;;;;;;;;4955837;28;20563;-79
2022/10/05 09:23:42;;;;;;;3.97;1.30;;;;;;;;;;4946199;28;20446;-79
2022/10/05 09:26:25;;;;;;;1.73;0.90;;;;;;;;;;4992787;28;20038;-79
2022/10/05 09:29:11;;;;;;;1.40;0.80;;;;;;;;;;4986072;28;20454;-80
2022/10/05 09:31:39;;;;;;;2.20;0.70;;;;;;;;;;4961889;28;20035;-79
2022/10/05 09:34:11;;;;;;;3.15;0.90;;;;;;;;;;4974895;28;20518;-79
2022/10/05 09:36:55;;;;;;;1.55;0.70;;;;;;;;;;4977147;28;20050;-80
2022/10/05 09:39:40;;;;;;;3.88;1.00;;;;;;;;;;4992286;28;20034;-79
2022/10/05 09:42:24;;;;;;;1.92;0.68;;;;;;;;;;4982767;28;20379;-81
2022/10/05 09:44:53;;;;;;;1.38;0.70;;;;;;;;;;4985041;28;20030;-81
2022/10/05 09:47:18;;;;;;;2.45;0.60;;;;;;;;;;4966091;28;20030;-80
2022/10/05 09:49:44;;;;;;;;;;;;;;;;;;4985758;28;20066;-79
2022/10/05 09:52:21;;;;;;;1.80;0.90;;;;;;;;;;4976253;28;20000;-79
2022/10/05 09:54:50;;;;;;;3.53;1.10;;;;;;;;;;4976132;28;20030;-80
2022/10/05 09:57:34;;;;;;;2.20;1.00;;;;;;;;;;4978050;28;20027;-81
2022/10/05 10:00:06;;;;;;;1.70;1.00;;;;;;;;;;4975666;28;20151;-80
2022/10/05 10:02:37;;;;;;;3.60;0.90;;;;;;;;;;4965375;28;20031;-80
2022/10/05 10:05:04;;;;;;;;;;;;;;;;;;4976498;28;20538;-81
2022/10/05 10:07:33;;;;;;;1.42;0.85;;;;;;;;;;4966771;28;20336;-79
2022/10/05 10:10:20;;;;;;;1.50;0.70;;;;;;;;;;4991062;28;20090;-79
2022/10/05 10:12:50;;;;;;;1.50;0.68;;;;;;;;;;4975020;28;20031;-78
2022/10/05 10:15:24;;;;;;;0.90;0.60;;;;;;;;;;4961567;28;20117;-79
2022/10/05 10:18:06;;;;;;;1.95;0.60;;;;;;;;;;4973671;28;20041;-80
2022/10/05 10:20:34;;;;;;;1.13;0.60;;;;;;;;;;4972946;28;20086;-81
2022/10/05 10:23:12;;;;;;;2.85;1.00;;;;;;;;;;4973313;28;20109;-79
2022/10/05 10:25:37;;;;;;;4.45;1.13;;;;;;;;;;4990873;28;20442;-79
2022/10/05 10:28:03;;;;;;;;;;;;;;;;;;4992239;28;20038;-79
2022/10/05 10:30:35;;;;;;;1.20;0.60;;;;;;;;;;4971513;28;20388;-80
2022/10/05 10:33:12;;;;;;;1.70;0.77;;;;;;;;;;4973918;28;20035;-80
2022/10/05 10:35:39;;;;;;;1.05;0.70;;;;;;;;;;4976092;28;20071;-79
2022/10/05 10:38:04;;;;;;;2.08;0.90;;;;;;;;;;4968309;28;20031;-80
2022/10/05 10:40:33;;;;;;;;;;;;;;;;;;4975373;28;20501;-79
2022/10/05 10:43:17;;;;;;;3.17;1.00;;;;;;;;;;4992037;28;19917;-79
2022/10/05 10:45:47;;;;;;;2.80;0.80;;;;;;;;;;4977640;28;20038;-80
2022/10/05 10:48:12;;;;;;;1.50;0.73;;;;;;;;;;4981999;28;20023;-80
2022/10/05 10:50:37;;;;;;;;;;;;;;;;;;4975070;28;20061;-78
2022/10/05 10:53:17;;;;;;;1.10;0.75;;;;;;;;;;4990547;28;19925;-80
2022/10/05 10:56:01;;;;;;;2.58;0.90;;;;;;;;;;4947579;28;20034;-80
2022/10/05 10:58:39;;;;;;;3.03;0.90;;;;;;;;;;4985210;28;20162;-80
2022/10/05 11:01:11;;;;;;;0.80;0.63;;;;;;;;;;4964784;28;20112;-80
2022/10/05 11:03:56;;;;;;;6.97;1.00;;;;;;;;;;4991532;28;20057;-80
2022/10/05 11:06:28;;;;;;;0.82;0.52;;;;;;;;;;4972065;28;20469;-81
2022/10/05 11:09:13;;;;;;;1.85;0.70;;;;;;;;;;4986643;28;20506;-79
2022/10/05 11:11:41;;;;;;;2.20;0.80;;;;;;;;;;4975409;28;20627;-80
2022/10/05 11:14:10;;;;;;;1.17;0.70;;;;;;;;;;4991397;28;20042;-79
2022/10/05 11:16:53;;;;;;;1.00;0.65;;;;;;;;;;4989460;28;20046;-80
2022/10/05 11:19:20;;;;;;;0.75;0.63;;;;;;;;;;4991785;28;20045;-78
2022/10/05 11:21:45;;;;;;;;;;;;;;;;;;4992241;28;20501;-78
2022/10/05 11:24:29;;;;;;;2.13;0.80;;;;;;;;;;4991278;28;20008;-80
2022/10/05 11:27:07;;;;;;;2.90;1.23;;;;;;;;;;4981381;28;20042;-78
2022/10/05 11:29:39;;;;;;;3.13;0.80;;;;;;;;;;4990368;28;20045;-80
2022/10/05 11:32:23;;;;;;;1.73;0.80;;;;;;;;;;4999950;28;20150;-80
2022/10/05 11:34:49;;;;;;;2.50;0.93;;;;;;;;;;4977686;28;20054;-80
2022/10/05 11:37:14;;;;;;;;;;;;;;;;;;4979502;28;20045;-80
2022/10/05 11:39:44;;;;;;;3.60;1.13;;;;;;;;;;4979816;28;19917;-80
2022/10/05 11:42:21;;;;;;;9.00;1.00;;;;;;;;;;4964401;28;20412;-78
2022/10/05 11:45:05;;;;;;;2.88;1.00;;;;;;;;;;4964550;28;20035;-80
2022/10/05 11:47:33;;;;;;;2.28;0.80;;;;;;;;;;4978990;28;20522;-80
2022/10/05 11:50:14;;;;;;;2.55;0.93;;;;;;;;;;4977205;28;20030;-79
2022/10/05 11:52:43;;;;;;;4.30;0.70;;;;;;;;;;4993270;28;20090;-80
2022/10/05 11:55:13;;;;;;;2.00;0.98;;;;;;;;;;4976754;28;20038;-79
2022/10/05 11:57:45;;;;;;;2.50;0.95;;;;;;;;;;4978065;28;20023;-78
2022/10/05 12:00:11;;;;;;;1.80;1.10;;;;;;;;;;4978270;28;20102;-80
2022/10/05 12:02:45;;;;;;;2.53;1.17;;;;;;;;;;4977157;28;20394;-80
2022/10/05 12:05:14;;;;;;;4.00;1.48;;;;;;;;;;5008740;28;20034;-78
2022/10/05 12:07:46;;;;;;;2.47;1.10;;;;;;;;;;4984937;28;20494;-79
2022/10/05 12:10:16;;;;;;;3.45;1.20;;;;;;;;;;4977072;28;20035;-80
2022/10/05 12:13:01;;;;;;;3.67;1.60;;;;;;;;;;4965603;28;20026;-80
2022/10/05 12:15:36;;;;;;;4.25;1.00;;;;;;;;;;4975982;28;20042;-80
2022/10/05 12:18:07;;;;;;;2.65;0.98;;;;;;;;;;4964376;28;20058;-79
2022/10/05 12:20:47;;;;;;;2.67;1.10;;;;;;;;;;4979745;28;20018;-79
2022/10/05 12:23:21;;;;;;;3.33;1.05;;;;;;;;;;4978623;28;20066;-79
2022/10/05 12:25:48;;;;;;;2.60;0.90;;;;;;;;;;4977443;28;20050;-80
2022/10/05 12:28:16;;;;;;;3.92;1.30;;;;;;;;;;4976116;28;20030;-80
2022/10/05 12:31:11;;;;;;;2.55;1.30;;;;;;;;;;4962042;28;20110;-78
2022/10/05 12:33:39;;;;;;;2.38;1.20;;;;;;;;;;4947449;28;20046;-80
2022/10/05 12:36:16;;;;;;;4.10;1.30;;;;;;;;;;4991870;28;20406;-79
2022/10/05 12:38:53;;;;;;;4.47;1.17;;;;;;;;;;4976611;28;20038;-80
2022/10/05 12:41:22;;;;;;;4.28;1.17;;;;;;;;;;4961469;28;20035;-82
2022/10/05 12:43:53;;;;;;;3.90;1.50;;;;;;;;;;4992046;28;20023;-80
2022/10/05 12:46:18;;;;;;;4.95;1.90;;;;;;;;;;4991295;28;20045;-79
2022/10/05 12:48:43;;;;;;;;;;;;;;;;;;4977691;28;20109;-80
2022/10/05 12:51:27;;;;;;;3.15;1.40;;;;;;;;;;4992254;28;20368;-79
2022/10/05 12:53:58;;;;;;;1.88;1.20;;;;;;;;;;4984601;28;20133;-80
2022/10/05 12:56:39;;;;;;;2.30;0.80;;;;;;;;;;4978802;28;20039;-80
2022/10/05 12:59:10;;;;;;;2.40;0.98;;;;;;;;;;4941156;28;20034;-79
2022/10/05 13:01:39;;;;;;;1.55;0.70;;;;;;;;;;4977366;28;20038;-79
2022/10/05 13:04:09;;;;;;;2.40;0.75;;;;;;;;;;4984344;28;20038;-80
2022/10/05 13:06:37;;;;;;;2.60;0.60;;;;;;;;;;4990826;28;20607;-79
2022/10/05 13:09:07;;;;;;;2.40;0.80;;;;;;;;;;4996120;28;20034;-80
2022/10/05 13:11:49;;;;;;;1.70;0.63;;;;;;;;;;4974184;28;20037;-79
2022/10/05 13:14:34;;;;;;;2.08;0.90;;;;;;;;;;4978069;28;20461;-78
2022/10/05 13:17:01;;;;;;;3.70;1.50;;;;;;;;;;4989150;28;20121;-79
2022/10/05 13:19:45;;;;;;;4.03;0.90;;;;;;;;;;4991458;28;20025;-81
2022/10/05 13:22:21;;;;;;;1.90;0.65;;;;;;;;;;4963511;28;20041;-80
2022/10/05 13:25:05;;;;;;;2.70;0.90;;;;;;;;;;4960050;28;20030;-79
2022/10/05 13:27:34;;;;;;;3.78;0.90;;;;;;;;;;4990010;28;20034;-79
2022/10/05 13:30:04;;;;;;;3.75;1.00;;;;;;;;;;4973762;28;20089;-79
2022/10/05 13:32:40;;;;;;;3.08;0.80;;;;;;;;;;4958379;28;20036;-82
2022/10/05 13:35:06;;;;;;;;;;;;;;;;;;4971186;28;20054;-81
2022/10/05 13:37:42;;;;;;;3.58;0.90;;;;;;;;;;4972523;28;19957;-79
2022/10/05 13:40:09;;;;;;;3.38;1.20;;;;;;;;;;4980913;28;20038;-78
2022/10/05 13:42:54;;;;;;;3.88;1.00;;;;;;;;;;4979554;28;20560;-79
2022/10/05 13:45:20;;;;;;;2.65;1.10;;;;;;;;;;4942263;28;20121;-79
2022/10/05 13:47:46;;;;;;;;;;;;;;;;;;4984852;28;20030;-77
2022/10/05 13:50:19;;;;;;;3.30;1.00;;;;;;;;;;4976718;28;20436;-80
2022/10/05 13:52:44;;;;;;;3.65;1.10;;;;;;;;;;4955895;28;20061;-81
2022/10/05 13:55:10;;;;;;;;;;;;;;;;;;4972313;28;20026;-79
2022/10/05 13:57:55;;;;;;;3.08;1.15;;;;;;;;;;4965203;28;19920;-78
2022/10/05 14:00:22;;;;;;;2.97;0.90;;;;;;;;;;4983797;28;20039;-83
2022/10/05 14:02:51;;;;;;;1.92;0.90;;;;;;;;;;4964515;28;20042;-80
2022/10/05 14:05:28;;;;;;;2.42;0.90;;;;;;;;;;4985796;28;20038;-78
2022/10/05 14:07:54;;;;;;;7.32;1.40;;;;;;;;;;4972949;28;20078;-78
2022/10/05 14:10:19;;;;;;;;;;;;;;;;;;4978372;28;20026;-79
2022/10/05 14:12:45;;;;;;;4.38;1.10;;;;;;;;;;4979352;28;19914;-83
2022/10/05 14:15:10;;;;;;;;;;;;;;;;;;4953840;28;20027;-80
2022/10/05 14:17:37;;;;;;;1.88;1.05;;;;;;;;;;4977147;28;19961;-81
2022/10/05 14:20:21;;;;;;;2.85;1.20;;;;;;;;;;4951526;28;20022;-78
2022/10/05 14:22:48;;;;;;;4.95;1.30;;;;;;;;;;4978475;28;20734;-79
2022/10/05 14:25:16;;;;;;;4.28;1.60;;;;;;;;;;4982396;28;20026;-79
2022/10/05 14:27:50;;;;;;;5.15;1.10;;;;;;;;;;4969670;28;20498;-80
2022/10/05 14:30:20;;;;;;;2.45;1.48;;;;;;;;;;4997614;28;20410;-84
2022/10/05 14:32:48;;;;;;;3.75;1.20;;;;;;;;;;4970662;28;20498;-81
2022/10/05 14:35:15;;;;;;;5.35;1.30;;;;;;;;;;4977578;28;20058;-80
2022/10/05 14:38:06;;;;;;;4.05;1.52;;;;;;;;;;4955106;28;20027;-78
2022/10/05 14:40:33;;;;;;;5.75;1.70;;;;;;;;;;4961950;28;20034;-78
2022/10/05 14:43:00;;;;;;;2.80;1.67;;;;;;;;;;4943196;28;20378;-80
2022/10/05 14:45:28;;;;;;;2.60;1.50;;;;;;;;;;4991417;28;20470;-79
2022/10/05 14:48:00;;;;;;;4.15;1.55;;;;;;;;;;4968850;28;20030;-79
2022/10/05 14:50:28;;;;;;;4.82;1.73;;;;;;;;;;4986338;28;20086;-81
2022/10/05 14:52:59;;;;;;;3.50;1.50;;;;;;;;;;4967197;28;20031;-80
2022/10/05 14:55:33;;;;;;;3.70;1.80;;;;;;;;;;4933142;29;20447;-80
2022/10/05 14:58:22;;;;;;;5.30;1.90;;;;;;;;;;4964090;28;20031;-79
2022/10/05 15:00:54;;;;;;;5.25;2.28;;;;;;;;;;4961151;28;20030;-81
2022/10/05 15:03:19;;;;;;;5.78;2.65;;;;;;;;;;4973773;28;20037;-80
2022/10/05 15:05:45;;;;;;;;;;;;;;;;;;4979172;28;20030;-81
2022/10/05 15:08:10;;;;;;;5.72;2.60;;;;;;;;;;4986875;28;19918;-81
2022/10/05 15:10:35;;;;;;;;;;;;;;;;;;4993900;28;20027;-80
2022/10/05 15:13:16;;;;;;;2.97;1.98;;;;;;;;;;4980196;28;19922;-82
2022/10/05 15:15:49;;;;;;;4.75;1.90;;;;;;;;;;4993481;28;20069;-80
2022/10/05 15:18:26;;;;;;;3.03;1.63;;;;;;;;;;4979261;28;20047;-81
2022/10/05 15:21:12;;;;;;;2.92;1.40;;;;;;;;;;4996283;28;20418;-80
2022/10/05 15:23:42;;;;;;;2.63;1.40;;;;;;;;;;4968821;28;20042;-80
2022/10/05 15:26:26;;;;;;;3.42;1.35;;;;;;;;;;4974727;28;20418;-78
2022/10/05 15:28:54;;;;;;;2.65;1.60;;;;;;;;;;4997129;28;20064;-82
2022/10/05 15:31:23;;;;;;;2.72;1.50;;;;;;;;;;4958707;28;20037;-80